Time,TemperatureF,DewpointF,PressureIn,WindDirection,WindDirectionDegrees,WindSpeedMPH,WindSpeedGustMPH,Humidity,HourlyPrecipIn,Conditions,Clouds,dailyrainin,SoftwareType,DateUTC
2013-01-19 00:02:00,36.9,34.5,30.24,NNW,346,0.0,0.0,91,0.00,,SKC,0.00,VWS V13.01,2013-01-19 06:02:00,
2013-01-19 00:07:00,36.9,35.3,30.24,NW,304,0.0,2.7,94,0.00,,SKC,0.00,VWS V13.01,2013-01-19 06:07:00,
2013-01-19 00:12:00,37.0,35.5,30.24,ENE,77,0.0,0.0,94,0.00,,SKC,0.00,VWS V13.01,2013-01-19 06:12:00,
2013-01-19 00:17:00,37.0,35.2,30.24,ENE,77,0.0,0.0,93,0.00,,SKC,0.00,VWS V13.01,2013-01-19 06:17:00,
2013-01-19 00:22:00,37.0,35.2,30.24,ENE,77,0.0,0.0,93,0.00,,SKC,0.00,VWS V13.01,2013-01-19 06:22:00,
2013-01-19 00:27:00,37.0,34.9,30.24,ENE,77,0.0,0.0,92,0.00,,SKC,0.00,VWS V13.01,2013-01-19 06:27:00,
2013-01-19 00:32:00,37.0,34.7,30.24,ENE,77,0.0,0.0,91,0.00,,SKC,0.00,VWS V13.01,2013-01-19 06:32:00,
2013-01-19 00:37:00,36.9,34.5,30.24,ENE,77,0.0,0.0,91,0.00,,SKC,0.00,VWS V13.01,2013-01-19 06:37:00,
2013-01-19 00:42:00,36.7,34.6,30.24,ENE,77,0.0,0.0,92,0.00,,SKC,0.00,VWS V13.01,2013-01-19 06:42:00,
2013-01-19 00:47:00,36.7,34.6,30.24,ENE,77,0.0,0.0,92,0.00,,SKC,0.00,VWS V13.01,2013-01-19 06:47:00,
2013-01-19 00:52:00,36.5,34.4,30.24,ENE,77,0.0,0.0,92,0.00,,SKC,0.00,VWS V13.01,2013-01-19 06:52:00,
2013-01-19 00:57:00,36.5,34.4,30.24,ENE,77,0.0,0.0,92,0.00,,SKC,0.00,VWS V13.01,2013-01-19 06:57:00,
2013-01-19 01:02:00,36.7,34.8,30.27,ENE,77,0.0,0.0,93,0.00,,SKC,0.00,VWS V13.01,2013-01-19 07:02:00,
2013-01-19 01:07:00,36.7,34.6,30.27,ENE,77,0.0,0.0,92,0.00,,SKC,0.00,VWS V13.01,2013-01-19 07:07:00,
2013-01-19 01:12:00,36.5,34.4,30.27,ENE,77,0.0,0.0,92,0.00,,SKC,0.00,VWS V13.01,2013-01-19 07:12:00,
2013-01-19 01:17:00,36.5,34.4,30.27,ENE,77,0.0,0.0,92,0.00,,SKC,0.00,VWS V13.01,2013-01-19 07:17:00,
2013-01-19 01:22:00,36.3,34.2,30.27,ENE,77,0.0,0.0,92,0.00,,SKC,0.00,VWS V13.01,2013-01-19 07:22:00,
2013-01-19 01:27:00,36.3,34.0,30.27,ENE,77,0.0,0.0,91,0.00,,SKC,0.00,VWS V13.01,2013-01-19 07:27:00,
2013-01-19 01:32:00,36.1,34.0,30.27,ENE,77,0.0,0.0,92,0.00,,SKC,0.00,VWS V13.01,2013-01-19 07:32:00,
2013-01-19 01:37:00,36.1,34.0,30.27,ENE,77,0.0,0.0,92,0.00,,SKC,0.00,VWS V13.01,2013-01-19 07:37:00,
2013-01-19 01:43:00,36.1,34.0,30.27,ENE,77,0.0,0.0,92,0.00,,SKC,0.00,VWS V13.01,2013-01-19 07:43:00,
2013-01-19 01:48:00,36.1,34.0,30.27,ENE,77,0.0,0.0,92,0.00,,SKC,0.00,VWS V13.01,2013-01-19 07:48:00,
2013-01-19 01:53:00,36.1,34.0,30.27,ENE,77,0.0,0.0,92,0.00,,SKC,0.00,VWS V13.01,2013-01-19 07:53:00,
2013-01-19 01:58:00,36.3,34.2,30.27,ENE,77,0.0,0.0,92,0.00,,SKC,0.00,VWS V13.01,2013-01-19 07:58:00,
2013-01-19 02:03:00,36.7,34.8,30.24,ENE,77,0.0,0.0,93,0.00,,SKC,0.00,VWS V13.01,2013-01-19 08:03:00,
2013-01-19 02:07:00,36.9,35.0,30.24,ENE,77,0.0,0.0,93,0.00,,SKC,0.00,VWS V13.01,2013-01-19 08:07:00,
2013-01-19 02:12:00,37.0,35.2,30.24,ENE,77,0.0,0.0,93,0.00,,SKC,0.00,VWS V13.01,2013-01-19 08:12:00,
2013-01-19 02:17:00,37.2,35.4,30.24,ENE,77,0.0,0.0,93,0.00,,SKC,0.00,VWS V13.01,2013-01-19 08:17:00,
2013-01-19 02:22:00,37.6,36.0,30.24,ENE,77,0.0,0.0,94,0.00,,SKC,0.00,VWS V13.01,2013-01-19 08:22:00,
2013-01-19 02:28:00,37.6,35.7,30.24,ENE,77,0.0,0.0,93,0.00,,SKC,0.00,VWS V13.01,2013-01-19 08:28:00,
2013-01-19 02:32:00,37.9,36.6,30.24,ENE,77,0.0,0.0,95,0.00,,SKC,0.00,VWS V13.01,2013-01-19 08:32:00,
2013-01-19 02:38:00,38.5,37.4,30.24,ENE,77,0.0,0.0,96,0.00,,SKC,0.00,VWS V13.01,2013-01-19 08:38:00,
2013-01-19 02:42:00,38.8,38.1,30.24,ENE,77,0.0,0.0,97,0.00,,SKC,0.00,VWS V13.01,2013-01-19 08:42:00,
2013-01-19 02:47:00,38.8,37.5,30.24,ENE,77,0.0,0.0,95,0.00,,SKC,0.00,VWS V13.01,2013-01-19 08:47:00,
2013-01-19 02:52:00,39.0,38.0,30.24,ENE,77,0.0,0.0,96,0.00,,SKC,0.00,VWS V13.01,2013-01-19 08:52:00,
2013-01-19 02:57:00,39.4,38.9,30.24,ENE,77,0.0,0.0,98,0.00,,SKC,0.00,VWS V13.01,2013-01-19 08:57:00,
2013-01-19 03:02:00,39.4,38.3,30.24,ENE,77,0.0,0.0,96,0.00,,SKC,0.00,VWS V13.01,2013-01-19 09:02:00,
2013-01-19 03:07:00,39.6,38.5,30.24,NNE,28,0.0,0.0,96,0.00,,SKC,0.00,VWS V13.01,2013-01-19 09:07:00,
2013-01-19 03:12:00,39.7,39.2,30.24,North,349,0.0,0.0,98,0.00,,SKC,0.00,VWS V13.01,2013-01-19 09:12:00,
2013-01-19 03:17:00,39.7,39.0,30.24,North,10,2.7,2.7,97,0.00,,SKC,0.00,VWS V13.01,2013-01-19 09:17:00,
2013-01-19 03:22:00,39.9,38.6,30.24,NNE,28,2.2,2.2,95,0.00,,SKC,0.00,VWS V13.01,2013-01-19 09:22:00,
2013-01-19 03:27:00,39.9,38.3,30.24,North,8,0.0,2.2,94,0.00,,SKC,0.00,VWS V13.01,2013-01-19 09:27:00,
2013-01-19 03:32:00,39.9,38.3,30.24,NNE,23,0.0,0.0,94,0.00,,SKC,0.00,VWS V13.01,2013-01-19 09:32:00,
2013-01-19 03:37:00,39.9,38.3,30.24,NNE,16,0.0,0.0,94,0.00,,SKC,0.00,VWS V13.01,2013-01-19 09:37:00,
2013-01-19 03:42:00,39.9,38.3,30.24,NNE,16,0.0,0.0,94,0.00,,SKC,0.00,VWS V13.01,2013-01-19 09:42:00,
2013-01-19 03:47:00,40.1,38.2,30.24,NNE,16,0.0,0.0,93,0.00,,SKC,0.00,VWS V13.01,2013-01-19 09:47:00,
2013-01-19 03:52:00,40.1,38.0,30.24,NNE,16,0.0,0.0,92,0.00,,SKC,0.00,VWS V13.01,2013-01-19 09:52:00,
2013-01-19 03:57:00,40.1,38.0,30.24,NNE,16,0.0,0.0,92,0.00,,SKC,0.00,VWS V13.01,2013-01-19 09:57:00,
2013-01-19 04:02:00,39.9,37.8,30.24,NNE,16,0.0,0.0,92,0.00,,SKC,0.00,VWS V13.01,2013-01-19 10:02:00,
2013-01-19 04:07:00,39.7,37.6,30.24,NNE,17,0.0,0.0,92,0.00,,SKC,0.00,VWS V13.01,2013-01-19 10:07:00,
2013-01-19 04:12:00,39.4,37.2,30.24,NNE,17,0.0,0.0,92,0.00,,SKC,0.00,VWS V13.01,2013-01-19 10:12:00,
2013-01-19 04:17:00,39.2,37.1,30.21,NNE,17,0.0,0.0,92,0.00,,SKC,0.00,VWS V13.01,2013-01-19 10:17:00,
2013-01-19 04:22:00,39.0,36.9,30.21,NNE,17,0.0,0.0,92,0.00,,SKC,0.00,VWS V13.01,2013-01-19 10:22:00,
2013-01-19 04:27:00,38.8,36.7,30.21,NNE,17,0.0,0.0,92,0.00,,SKC,0.00,VWS V13.01,2013-01-19 10:27:00,
2013-01-19 04:32:00,38.7,36.5,30.21,NNE,17,0.0,0.0,92,0.00,,SKC,0.00,VWS V13.01,2013-01-19 10:32:00,
2013-01-19 04:37:00,38.5,36.4,30.21,NNE,17,0.0,0.0,92,0.00,,SKC,0.00,VWS V13.01,2013-01-19 10:37:00,
2013-01-19 04:42:00,38.5,36.4,30.21,NNE,17,0.0,0.0,92,0.00,,SKC,0.00,VWS V13.01,2013-01-19 10:42:00,
2013-01-19 04:47:00,38.3,36.2,30.21,NNE,17,0.0,0.0,92,0.00,,SKC,0.00,VWS V13.01,2013-01-19 10:47:00,
2013-01-19 04:52:00,38.1,36.0,30.21,NNE,17,0.0,0.0,92,0.00,,SKC,0.00,VWS V13.01,2013-01-19 10:52:00,
2013-01-19 04:57:00,38.1,36.0,30.21,NNE,17,0.0,0.0,92,0.00,,SKC,0.00,VWS V13.01,2013-01-19 10:57:00,
2013-01-19 05:02:00,38.3,36.2,30.21,NNE,17,0.0,0.0,92,0.00,,SKC,0.00,VWS V13.01,2013-01-19 11:02:00,
2013-01-19 05:07:00,38.1,36.0,30.21,NNE,16,0.0,0.0,92,0.00,,SKC,0.00,VWS V13.01,2013-01-19 11:07:00,
2013-01-19 05:12:00,38.1,36.0,30.21,NNE,16,0.0,0.0,92,0.00,,SKC,0.00,VWS V13.01,2013-01-19 11:12:00,
2013-01-19 06:47:00,36.9,34.8,30.24,NNE,19,0.0,0.0,92,0.00,,SKC,0.00,VWS V13.01,2013-01-19 12:47:00,
2013-01-19 06:48:00,36.9,34.8,30.24,NNE,19,0.0,0.0,92,0.00,,SKC,0.00,VWS V13.01,2013-01-19 12:48:00,
2013-01-19 06:53:00,37.0,35.2,30.24,NNE,19,0.0,0.0,93,0.00,,SKC,0.00,VWS V13.01,2013-01-19 12:53:00,
2013-01-19 06:58:00,37.0,35.2,30.24,NNE,19,0.0,0.0,93,0.00,,SKC,0.00,VWS V13.01,2013-01-19 12:58:00,
2013-01-19 07:03:00,37.0,35.2,30.24,NNE,19,0.0,0.0,93,0.00,,SKC,0.00,VWS V13.01,2013-01-19 13:03:00,
2013-01-19 07:08:00,36.9,34.8,30.24,NNE,19,0.0,0.0,92,0.00,,SKC,0.00,VWS V13.01,2013-01-19 13:08:00,
2013-01-19 07:13:00,37.0,35.2,30.24,NNE,19,0.0,0.0,93,0.00,,SKC,0.00,VWS V13.01,2013-01-19 13:13:00,
2013-01-19 07:18:00,37.2,35.4,30.24,NNE,19,0.0,0.0,93,0.00,,SKC,0.00,VWS V13.01,2013-01-19 13:18:00,
2013-01-19 07:23:00,37.4,35.6,30.24,NNE,19,0.0,0.0,93,0.00,,SKC,0.00,VWS V13.01,2013-01-19 13:23:00,
2013-01-19 07:28:00,37.6,35.7,30.24,NNE,19,0.0,0.0,93,0.00,,SKC,0.00,VWS V13.01,2013-01-19 13:28:00,
2013-01-19 07:33:00,37.6,35.7,30.24,NNE,19,0.0,0.0,93,0.00,,SKC,0.00,VWS V13.01,2013-01-19 13:33:00,
2013-01-19 07:38:00,37.8,35.9,30.24,NNE,19,0.0,0.0,93,0.00,,SKC,0.00,VWS V13.01,2013-01-19 13:38:00,
2013-01-19 07:43:00,38.1,36.5,30.24,NNE,19,0.0,0.0,94,0.00,,SKC,0.00,VWS V13.01,2013-01-19 13:43:00,
2013-01-19 07:48:00,39.0,38.0,30.24,NNE,19,0.0,0.0,96,0.00,,SKC,0.00,VWS V13.01,2013-01-19 13:48:00,
2013-01-19 07:53:00,39.9,38.9,30.24,NNE,18,0.0,2.7,96,0.00,,SKC,0.00,VWS V13.01,2013-01-19 13:53:00,
2013-01-19 07:58:00,40.5,37.8,30.24,NNE,18,0.0,0.0,90,0.00,,SKC,0.00,VWS V13.01,2013-01-19 13:58:00,
2013-01-19 08:03:00,41.2,38.5,30.24,NNE,18,0.0,0.0,90,0.00,,SKC,0.00,VWS V13.01,2013-01-19 14:03:00,
2013-01-19 08:08:00,41.5,37.1,30.24,NNE,18,0.0,0.0,84,0.00,,SKC,0.00,VWS V13.01,2013-01-19 14:08:00,
2013-01-19 08:13:00,42.1,37.0,30.24,NNE,18,0.0,0.0,82,0.00,,SKC,0.00,VWS V13.01,2013-01-19 14:13:00,
2013-01-19 08:18:00,42.8,36.8,30.24,NNE,28,0.0,3.1,79,0.00,,SKC,0.00,VWS V13.01,2013-01-19 14:18:00,
2013-01-19 08:23:00,43.3,37.6,30.24,NNE,23,0.0,3.6,80,0.00,,SKC,0.00,VWS V13.01,2013-01-19 14:23:00,
2013-01-19 08:28:00,43.5,36.5,30.24,North,5,0.0,0.0,76,0.00,,SKC,0.00,VWS V13.01,2013-01-19 14:28:00,
2013-01-19 08:33:00,43.5,36.1,30.24,NNE,25,0.0,0.0,75,0.00,,SKC,0.00,VWS V13.01,2013-01-19 14:33:00,
2013-01-19 08:38:00,43.5,37.8,30.24,NE,35,0.0,2.7,80,0.00,,SKC,0.00,VWS V13.01,2013-01-19 14:38:00,
2013-01-19 08:43:00,43.7,37.0,30.24,NE,35,0.0,0.0,77,0.00,,SKC,0.00,VWS V13.01,2013-01-19 14:43:00,
2013-01-19 08:48:00,44.1,37.7,30.24,ENE,58,0.0,2.2,78,0.00,,SKC,0.00,VWS V13.01,2013-01-19 14:48:00,
2013-01-19 08:53:00,44.6,38.2,30.24,NNE,28,2.2,2.2,78,0.00,,SKC,0.00,VWS V13.01,2013-01-19 14:53:00,
2013-01-19 08:58:00,45.5,37.7,30.24,ENE,64,0.0,0.0,74,0.00,,SKC,0.00,VWS V13.01,2013-01-19 14:58:00,
2013-01-19 09:03:00,46.8,39.3,30.24,ESE,109,0.0,3.1,75,0.00,,SKC,0.00,VWS V13.01,2013-01-19 15:03:00,
2013-01-19 09:08:00,47.8,38.2,30.24,ENE,74,5.4,5.4,69,0.00,,SKC,0.00,VWS V13.01,2013-01-19 15:08:00,
2013-01-19 09:13:00,48.7,38.7,30.24,ENE,64,0.0,3.6,68,0.00,,SKC,0.00,VWS V13.01,2013-01-19 15:13:00,
2013-01-19 09:18:00,49.6,39.5,30.24,ENE,62,3.6,4.9,68,0.00,,SKC,0.00,VWS V13.01,2013-01-19 15:18:00,
2013-01-19 09:23:00,50.4,40.2,30.24,ESE,120,0.0,0.0,68,0.00,,SKC,0.00,VWS V13.01,2013-01-19 15:23:00,
2013-01-19 09:28:00,51.3,40.7,30.24,NE,43,3.6,3.6,67,0.00,,SKC,0.00,VWS V13.01,2013-01-19 15:28:00,
2013-01-19 09:33:00,52.2,41.5,30.24,ENE,63,5.4,5.8,67,0.00,,SKC,0.00,VWS V13.01,2013-01-19 15:33:00,
2013-01-19 09:38:00,52.9,42.2,30.24,ENE,64,3.1,5.4,67,0.00,,SKC,0.00,VWS V13.01,2013-01-19 15:38:00,
2013-01-19 09:43:00,53.2,42.6,30.24,ESE,108,0.0,3.1,67,0.00,,SKC,0.00,VWS V13.01,2013-01-19 15:43:00,
2013-01-19 09:48:00,53.6,42.5,30.24,ESE,108,0.0,2.7,66,0.00,,SKC,0.00,VWS V13.01,2013-01-19 15:48:00,
2013-01-19 09:53:00,54.5,43.4,30.24,North,7,3.1,4.5,66,0.00,,SKC,0.00,VWS V13.01,2013-01-19 15:53:00,
2013-01-19 09:58:00,55.6,43.2,30.24,NE,42,3.1,3.1,63,0.00,,SKC,0.00,VWS V13.01,2013-01-19 15:58:00,
2013-01-19 10:03:00,56.7,44.2,30.24,ENE,64,5.8,7.6,63,0.00,,SKC,0.00,VWS V13.01,2013-01-19 16:03:00,
2013-01-19 10:08:00,56.8,44.4,30.24,NNE,32,6.3,8.1,63,0.00,,SKC,0.00,VWS V13.01,2013-01-19 16:08:00,
2013-01-19 10:13:00,56.7,44.2,30.24,NE,51,2.2,4.9,63,0.00,,SKC,0.00,VWS V13.01,2013-01-19 16:13:00,
2013-01-19 10:18:00,57.0,44.6,30.24,North,6,3.6,7.6,63,0.00,,SKC,0.00,VWS V13.01,2013-01-19 16:18:00,
2013-01-19 10:23:00,57.9,45.4,30.24,East,94,6.3,6.3,63,0.00,,SKC,0.00,VWS V13.01,2013-01-19 16:23:00,
2013-01-19 10:28:00,58.6,46.1,30.24,ESE,107,3.1,6.3,63,0.00,,SKC,0.00,VWS V13.01,2013-01-19 16:28:00,
2013-01-19 10:33:00,59.4,46.8,30.24,ENE,64,2.7,6.3,63,0.00,,SKC,0.00,VWS V13.01,2013-01-19 16:33:00,
2013-01-19 10:38:00,59.2,46.6,30.24,ENE,72,5.4,5.4,63,0.00,,SKC,0.00,VWS V13.01,2013-01-19 16:38:00,
2013-01-19 10:43:00,59.9,47.3,30.24,ESE,107,6.3,6.3,63,0.00,,SKC,0.00,VWS V13.01,2013-01-19 16:43:00,
2013-01-19 10:48:00,60.4,47.8,30.24,East,81,3.6,5.4,63,0.00,,SKC,0.00,VWS V13.01,2013-01-19 16:48:00,
2013-01-19 10:53:00,60.6,48.0,30.24,East,84,4.0,5.8,63,0.00,,SKC,0.00,VWS V13.01,2013-01-19 16:53:00,
2013-01-19 10:58:00,60.8,47.7,30.24,ESE,113,2.7,2.7,62,0.00,,SKC,0.00,VWS V13.01,2013-01-19 16:58:00,
2013-01-19 11:03:00,61.3,48.2,30.21,ESE,110,3.6,3.6,62,0.00,,SKC,0.00,VWS V13.01,2013-01-19 17:03:00,
2013-01-19 11:08:00,61.7,48.6,30.21,NE,54,0.0,4.0,62,0.00,,SKC,0.00,VWS V13.01,2013-01-19 17:08:00,
2013-01-19 11:13:00,61.7,48.6,30.21,ESE,113,2.7,4.0,62,0.00,,SKC,0.00,VWS V13.01,2013-01-19 17:13:00,
2013-01-19 11:18:00,62.4,49.2,30.21,East,92,4.5,4.5,62,0.00,,SKC,0.00,VWS V13.01,2013-01-19 17:18:00,
2013-01-19 11:23:00,63.0,49.8,30.21,ESE,122,4.0,5.4,62,0.00,,SKC,0.00,VWS V13.01,2013-01-19 17:23:00,
2013-01-19 11:28:00,63.5,50.3,30.21,ENE,76,3.6,4.9,62,0.00,,SKC,0.00,VWS V13.01,2013-01-19 17:28:00,
2013-01-19 11:33:00,63.5,50.3,30.21,ESE,106,5.8,5.8,62,0.00,,SKC,0.00,VWS V13.01,2013-01-19 17:33:00,
2013-01-19 11:38:00,64.0,50.8,30.21,South,183,5.4,5.8,62,0.00,,SKC,0.00,VWS V13.01,2013-01-19 17:38:00,
2013-01-19 11:43:00,64.2,50.9,30.21,SSE,154,3.6,4.0,62,0.00,,SKC,0.00,VWS V13.01,2013-01-19 17:43:00,
2013-01-19 11:48:00,64.4,50.7,30.21,SSE,165,5.4,5.4,61,0.00,,SKC,0.00,VWS V13.01,2013-01-19 17:48:00,
2013-01-19 11:53:00,65.3,51.5,30.21,South,174,3.1,3.1,61,0.00,,SKC,0.00,VWS V13.01,2013-01-19 17:53:00,
2013-01-19 11:58:00,66.0,52.2,30.21,SE,135,3.6,4.0,61,0.00,,SKC,0.00,VWS V13.01,2013-01-19 17:58:00,
2013-01-19 12:03:00,66.2,52.4,30.18,SE,141,2.7,5.8,61,0.00,,SKC,0.00,VWS V13.01,2013-01-19 18:03:00,
2013-01-19 12:08:00,66.4,52.5,30.18,South,180,5.8,6.3,61,0.00,,SKC,0.00,VWS V13.01,2013-01-19 18:08:00,
2013-01-19 12:14:00,66.6,52.7,30.18,SE,137,3.6,5.8,61,0.00,,SKC,0.00,VWS V13.01,2013-01-19 18:14:00,
2013-01-19 12:19:00,66.7,52.9,30.18,SSE,165,5.8,5.8,61,0.00,,SKC,0.00,VWS V13.01,2013-01-19 18:19:00,
2013-01-19 12:24:00,66.6,52.7,30.18,ESE,118,3.6,5.8,61,0.00,,SKC,0.00,VWS V13.01,2013-01-19 18:24:00,
2013-01-19 12:29:00,66.7,52.9,30.18,ESE,113,0.0,0.0,61,0.00,,SKC,0.00,VWS V13.01,2013-01-19 18:29:00,
2013-01-19 12:34:00,66.6,52.7,30.18,ESE,117,5.4,5.4,61,0.00,,SKC,0.00,VWS V13.01,2013-01-19 18:34:00,
2013-01-19 12:39:00,66.4,52.5,30.18,South,174,4.0,4.0,61,0.00,,SKC,0.00,VWS V13.01,2013-01-19 18:39:00,
2013-01-19 12:44:00,66.2,52.4,30.18,South,169,7.6,7.6,61,0.00,,SKC,0.00,VWS V13.01,2013-01-19 18:44:00,
2013-01-19 12:49:00,65.5,51.7,30.15,SSE,153,3.1,5.8,61,0.00,,SKC,0.00,VWS V13.01,2013-01-19 18:49:00,
2013-01-19 12:54:00,64.4,50.7,30.15,SE,124,2.7,2.7,61,0.00,,SKC,0.00,VWS V13.01,2013-01-19 18:54:00,
2013-01-19 12:59:00,64.0,50.8,30.15,East,95,4.0,5.4,62,0.00,,SKC,0.00,VWS V13.01,2013-01-19 18:59:00,
2013-01-19 13:04:00,63.7,50.4,30.15,South,173,3.1,3.1,62,0.00,,SKC,0.00,VWS V13.01,2013-01-19 19:04:00,
2013-01-19 13:10:00,63.7,50.4,30.15,SSE,157,5.4,5.4,62,0.00,,SKC,0.00,VWS V13.01,2013-01-19 19:10:00,
2013-01-19 13:15:00,64.0,50.8,30.15,South,172,4.0,4.0,62,0.00,,SKC,0.00,VWS V13.01,2013-01-19 19:15:00,
2013-01-19 13:20:00,64.0,50.8,30.15,ESE,123,3.6,6.7,62,0.00,,SKC,0.00,VWS V13.01,2013-01-19 19:20:00,
2013-01-19 13:25:00,64.2,50.9,30.15,South,170,4.9,5.8,62,0.00,,SKC,0.00,VWS V13.01,2013-01-19 19:25:00,
2013-01-19 13:30:00,64.4,50.7,30.15,SSE,151,4.0,4.0,61,0.00,,SKC,0.00,VWS V13.01,2013-01-19 19:30:00,
2013-01-19 13:35:00,63.9,50.6,30.12,SSE,153,2.2,5.4,62,0.00,,SKC,0.00,VWS V13.01,2013-01-19 19:35:00,
2013-01-19 13:40:00,63.5,50.3,30.12,ESE,103,6.7,6.7,62,0.00,,SKC,0.00,VWS V13.01,2013-01-19 19:40:00,
2013-01-19 13:45:00,63.3,50.1,30.12,SE,140,3.1,3.1,62,0.00,,SKC,0.00,VWS V13.01,2013-01-19 19:45:00,
2013-01-19 13:50:00,63.1,49.9,30.12,South,174,4.0,8.1,62,0.00,,SKC,0.00,VWS V13.01,2013-01-19 19:50:00,
2013-01-19 13:55:00,63.0,49.8,30.12,ESE,117,5.4,5.8,62,0.00,,SKC,0.00,VWS V13.01,2013-01-19 19:55:00,
2013-01-19 14:00:00,62.4,49.2,30.12,ESE,103,6.3,6.3,62,0.00,,SKC,0.00,VWS V13.01,2013-01-19 20:00:00,
2013-01-19 14:06:00,61.7,48.6,30.12,East,87,4.5,6.3,62,0.00,,SKC,0.00,VWS V13.01,2013-01-19 20:06:00,
2013-01-19 14:12:00,61.5,48.4,30.12,SE,139,2.2,2.7,62,0.00,,SKC,0.00,VWS V13.01,2013-01-19 20:12:00,
2013-01-19 14:17:00,61.7,48.6,30.12,SE,131,3.1,4.0,62,0.00,,SKC,0.00,VWS V13.01,2013-01-19 20:17:00,
2013-01-19 14:22:00,62.1,48.9,30.12,SSE,154,4.0,4.9,62,0.00,,SKC,0.00,VWS V13.01,2013-01-19 20:22:00,
2013-01-19 14:27:00,62.4,49.2,30.12,SSE,158,3.1,6.3,62,0.00,,SKC,0.00,VWS V13.01,2013-01-19 20:27:00,
2013-01-19 14:33:00,63.0,49.8,30.12,South,171,3.6,3.6,62,0.00,,SKC,0.00,VWS V13.01,2013-01-19 20:33:00,
2013-01-19 14:38:00,63.1,49.9,30.12,SSE,157,4.0,5.4,62,0.00,,SKC,0.00,VWS V13.01,2013-01-19 20:38:00,
2013-01-19 14:43:00,63.1,49.9,30.12,East,100,2.2,2.7,62,0.00,,SKC,0.00,VWS V13.01,2013-01-19 20:43:00,
2013-01-19 14:48:00,62.8,49.6,30.12,SE,132,3.1,4.0,62,0.00,,SKC,0.00,VWS V13.01,2013-01-19 20:48:00,
2013-01-19 14:53:00,62.4,49.2,30.12,South,186,2.7,4.0,62,0.00,,SKC,0.00,VWS V13.01,2013-01-19 20:53:00,
2013-01-19 14:58:00,62.2,49.1,30.12,SSE,160,3.1,3.6,62,0.00,,SKC,0.00,VWS V13.01,2013-01-19 20:58:00,
2013-01-19 15:03:00,62.2,49.1,30.12,SSE,148,4.9,7.2,62,0.00,,SKC,0.00,VWS V13.01,2013-01-19 21:03:00,
2013-01-19 15:08:00,62.1,48.9,30.12,SE,125,2.2,4.0,62,0.00,,SKC,0.00,VWS V13.01,2013-01-19 21:08:00,
2013-01-19 15:13:00,62.1,48.9,30.12,SE,141,2.7,2.7,62,0.00,,SKC,0.00,VWS V13.01,2013-01-19 21:13:00,
2013-01-19 15:19:00,61.9,48.7,30.12,SE,137,2.7,5.4,62,0.00,,SKC,0.00,VWS V13.01,2013-01-19 21:19:00,
2013-01-19 15:24:00,61.9,48.7,30.12,SSE,164,2.7,3.1,62,0.00,,SKC,0.00,VWS V13.01,2013-01-19 21:24:00,
2013-01-19 15:29:00,62.1,48.9,30.12,South,173,4.0,7.6,62,0.00,,SKC,0.00,VWS V13.01,2013-01-19 21:29:00,
2013-01-19 15:34:00,61.9,48.7,30.12,SSE,147,4.5,6.3,62,0.00,,SKC,0.00,VWS V13.01,2013-01-19 21:34:00,
2013-01-19 15:39:00,61.5,48.4,30.12,South,170,2.7,2.7,62,0.00,,SKC,0.00,VWS V13.01,2013-01-19 21:39:00,
2013-01-19 15:44:00,61.5,48.4,30.12,South,180,5.8,8.1,62,0.00,,SKC,0.00,VWS V13.01,2013-01-19 21:44:00,
2013-01-19 15:50:00,61.3,48.2,30.12,SSE,166,5.8,5.8,62,0.00,,SKC,0.00,VWS V13.01,2013-01-19 21:50:00,
2013-01-19 15:55:00,61.3,48.2,30.12,South,187,5.4,6.3,62,0.00,,SKC,0.00,VWS V13.01,2013-01-19 21:55:00,
2013-01-19 16:00:00,61.3,48.2,30.12,SE,139,2.7,2.7,62,0.00,,SKC,0.00,VWS V13.01,2013-01-19 22:00:00,
2013-01-19 16:05:00,61.0,47.9,30.12,SE,135,2.7,5.4,62,0.00,,SKC,0.00,VWS V13.01,2013-01-19 22:05:00,
2013-01-19 16:10:00,60.6,48.0,30.12,South,180,4.9,5.8,63,0.00,,SKC,0.00,VWS V13.01,2013-01-19 22:10:00,
2013-01-19 16:15:00,59.9,47.3,30.12,South,181,4.9,4.9,63,0.00,,SKC,0.00,VWS V13.01,2013-01-19 22:15:00,
2013-01-19 16:20:00,59.7,47.1,30.12,SE,137,4.9,5.4,63,0.00,,SKC,0.00,VWS V13.01,2013-01-19 22:20:00,
2013-01-19 16:26:00,59.7,47.1,30.12,South,173,3.1,3.1,63,0.00,,SKC,0.00,VWS V13.01,2013-01-19 22:26:00,
2013-01-19 16:32:00,59.9,48.1,30.12,South,181,3.6,3.6,65,0.00,,SKC,0.00,VWS V13.01,2013-01-19 22:32:00,
2013-01-19 16:37:00,59.7,48.0,30.12,SSE,151,4.9,4.9,65,0.00,,SKC,0.00,VWS V13.01,2013-01-19 22:37:00,
2013-01-19 16:42:00,59.4,47.6,30.12,South,172,0.0,4.9,65,0.00,,SKC,0.00,VWS V13.01,2013-01-19 22:42:00,
2013-01-19 16:47:00,59.2,47.4,30.12,SSE,153,6.3,6.3,65,0.00,,SKC,0.00,VWS V13.01,2013-01-19 22:47:00,
2013-01-19 16:52:00,59.0,47.3,30.12,SSE,166,0.0,4.9,65,0.00,,SKC,0.08,VWS V13.01,2013-01-19 22:52:00,
2013-01-19 16:57:00,58.8,47.5,30.12,SSE,159,0.0,0.0,66,0.00,,SKC,0.00,VWS V13.01,2013-01-19 22:57:00,
2013-01-19 17:02:00,58.8,47.5,30.12,SE,136,2.7,3.6,66,0.00,,SKC,0.00,VWS V13.01,2013-01-19 23:02:00,
2013-01-19 17:07:00,58.6,47.3,30.12,SSE,166,0.0,0.0,66,0.00,,SKC,0.00,VWS V13.01,2013-01-19 23:07:00,
2013-01-19 17:12:00,58.5,47.2,30.12,SE,145,3.6,3.6,66,0.00,,SKC,0.00,VWS V13.01,2013-01-19 23:12:00,
2013-01-19 17:17:00,58.1,46.8,30.12,SSW,207,0.0,2.7,66,0.00,,SKC,0.00,VWS V13.01,2013-01-19 23:17:00,
2013-01-19 17:22:00,57.9,46.6,30.12,South,172,2.7,3.1,66,0.00,,SKC,0.00,VWS V13.01,2013-01-19 23:22:00,
2013-01-19 17:28:00,57.6,46.3,30.12,SSE,160,0.0,0.0,66,0.00,,SKC,0.00,VWS V13.01,2013-01-19 23:28:00,
2013-01-19 17:33:00,57.2,46.4,30.12,South,182,0.0,3.6,67,0.00,,SKC,0.00,VWS V13.01,2013-01-19 23:33:00,
2013-01-19 17:38:00,56.8,46.4,30.12,South,172,3.1,3.6,68,0.00,,SKC,0.00,VWS V13.01,2013-01-19 23:38:00,
2013-01-19 17:43:00,56.7,47.0,30.12,SSE,152,0.0,0.0,70,0.00,,SKC,0.00,VWS V13.01,2013-01-19 23:43:00,
2013-01-19 17:49:00,56.5,47.2,30.12,SSE,160,0.0,0.0,71,0.00,,SKC,0.00,VWS V13.01,2013-01-19 23:49:00,
2013-01-19 17:54:00,56.1,48.3,30.12,SSE,160,0.0,0.0,75,0.00,,SKC,0.00,VWS V13.01,2013-01-19 23:54:00,
2013-01-19 17:59:00,55.6,47.8,30.12,SSE,160,0.0,0.0,75,0.00,,SKC,0.00,VWS V13.01,2013-01-19 23:59:00,
2013-01-19 18:04:00,54.9,47.8,30.12,SSE,160,0.0,0.0,77,0.00,,SKC,0.00,VWS V13.01,2013-01-20 00:04:00,
2013-01-19 18:09:00,54.1,47.1,30.12,SSE,160,0.0,0.0,77,0.00,,SKC,0.00,VWS V13.01,2013-01-20 00:09:00,
2013-01-19 18:15:00,53.8,47.4,30.12,SSE,160,0.0,0.0,79,0.00,,SKC,0.00,VWS V13.01,2013-01-20 00:15:00,
2013-01-19 18:20:00,53.4,47.1,30.12,SSE,160,0.0,0.0,79,0.00,,SKC,0.00,VWS V13.01,2013-01-20 00:20:00,
2013-01-19 18:25:00,53.1,47.1,30.12,SSE,160,0.0,0.0,80,0.00,,SKC,0.00,VWS V13.01,2013-01-20 00:25:00,
2013-01-19 18:30:00,52.7,47.4,30.12,SSE,160,0.0,0.0,82,0.00,,SKC,0.00,VWS V13.01,2013-01-20 00:30:00,
2013-01-19 18:35:00,52.3,47.3,30.12,SSE,160,0.0,0.0,83,0.00,,SKC,0.00,VWS V13.01,2013-01-20 00:35:00,
2013-01-19 18:40:00,51.8,46.8,30.12,SSE,160,0.0,0.0,83,0.00,,SKC,0.00,VWS V13.01,2013-01-20 00:40:00,
2013-01-19 18:45:00,51.6,46.6,30.12,SSE,160,0.0,0.0,83,0.00,,SKC,0.00,VWS V13.01,2013-01-20 00:45:00,
2013-01-19 18:50:00,51.1,46.4,30.12,SSE,160,0.0,0.0,84,0.00,,SKC,0.00,VWS V13.01,2013-01-20 00:50:00,
2013-01-19 18:55:00,50.7,46.1,30.12,SSE,160,0.0,0.0,84,0.00,,SKC,0.00,VWS V13.01,2013-01-20 00:55:00,
2013-01-19 19:01:00,50.2,45.5,30.12,SSE,160,0.0,0.0,84,0.00,,SKC,0.00,VWS V13.01,2013-01-20 01:01:00,
2013-01-19 19:06:00,50.0,45.4,30.12,SSE,160,0.0,0.0,84,0.00,,SKC,0.00,VWS V13.01,2013-01-20 01:06:00,
2013-01-19 19:12:00,50.0,45.7,30.12,SSE,160,0.0,0.0,85,0.00,,SKC,0.00,VWS V13.01,2013-01-20 01:12:00,
2013-01-19 19:17:00,49.8,45.8,30.12,SSE,160,0.0,0.0,86,0.00,,SKC,0.00,VWS V13.01,2013-01-20 01:17:00,
2013-01-19 19:22:00,49.8,45.5,30.12,SSE,160,0.0,0.0,85,0.00,,SKC,0.00,VWS V13.01,2013-01-20 01:22:00,
2013-01-19 19:27:00,49.5,45.2,30.12,SSE,160,0.0,0.0,85,0.00,,SKC,0.00,VWS V13.01,2013-01-20 01:27:00,
2013-01-19 19:33:00,49.1,44.5,30.12,SSE,160,0.0,0.0,84,0.00,,SKC,0.00,VWS V13.01,2013-01-20 01:33:00,
2013-01-19 19:37:00,48.9,44.6,30.12,SSE,160,0.0,0.0,85,0.00,,SKC,0.00,VWS V13.01,2013-01-20 01:37:00,
2013-01-19 19:43:00,48.7,45.3,30.12,SSE,160,0.0,0.0,88,0.00,,SKC,0.00,VWS V13.01,2013-01-20 01:43:00,
2013-01-19 19:48:00,48.7,45.3,30.12,SSE,160,0.0,0.0,88,0.00,,SKC,0.00,VWS V13.01,2013-01-20 01:48:00,
2013-01-19 19:53:00,48.6,44.9,30.12,SSE,160,0.0,0.0,87,0.00,,SKC,0.00,VWS V13.01,2013-01-20 01:53:00,
2013-01-19 19:59:00,48.0,44.3,30.12,SSE,160,0.0,0.0,87,0.00,,SKC,0.00,VWS V13.01,2013-01-20 01:59:00,
2013-01-19 20:04:00,47.7,44.0,30.12,SSE,160,0.0,0.0,87,0.00,,SKC,0.00,VWS V13.01,2013-01-20 02:04:00,
2013-01-19 20:09:00,47.3,43.9,30.12,SSE,160,0.0,0.0,88,0.00,,SKC,0.00,VWS V13.01,2013-01-20 02:09:00,
2013-01-19 20:14:00,47.3,43.9,30.12,SSE,160,0.0,0.0,88,0.00,,SKC,0.00,VWS V13.01,2013-01-20 02:14:00,
2013-01-19 20:19:00,47.3,43.9,30.12,SSE,160,0.0,0.0,88,0.00,,SKC,0.00,VWS V13.01,2013-01-20 02:19:00,
2013-01-19 20:24:00,47.3,44.2,30.12,SSE,160,0.0,0.0,89,0.00,,SKC,0.00,VWS V13.01,2013-01-20 02:24:00,
2013-01-19 20:29:00,47.1,44.0,30.12,SSE,160,0.0,0.0,89,0.00,,SKC,0.00,VWS V13.01,2013-01-20 02:29:00,
2013-01-19 20:34:00,47.1,44.0,30.12,SSE,160,0.0,0.0,89,0.00,,SKC,0.00,VWS V13.01,2013-01-20 02:34:00,
2013-01-19 20:40:00,46.9,43.9,30.12,SSE,160,0.0,0.0,89,0.00,,SKC,0.00,VWS V13.01,2013-01-20 02:40:00,
2013-01-19 20:45:00,46.8,44.0,30.12,SSE,160,0.0,0.0,90,0.00,,SKC,0.00,VWS V13.01,2013-01-20 02:45:00,
2013-01-19 20:50:00,46.8,44.0,30.12,SSE,160,0.0,0.0,90,0.00,,SKC,0.00,VWS V13.01,2013-01-20 02:50:00,
2013-01-19 20:55:00,46.6,43.8,30.12,SSE,160,0.0,0.0,90,0.00,,SKC,0.00,VWS V13.01,2013-01-20 02:55:00,
2013-01-19 21:00:00,46.6,43.5,30.12,SSE,160,0.0,0.0,89,0.00,,SKC,0.00,VWS V13.01,2013-01-20 03:00:00,
2013-01-19 21:06:00,46.0,43.0,30.12,SSE,160,0.0,0.0,89,0.00,,SKC,0.00,VWS V13.01,2013-01-20 03:06:00,
2013-01-19 21:11:00,45.9,43.1,30.12,SSE,160,0.0,0.0,90,0.00,,SKC,0.00,VWS V13.01,2013-01-20 03:11:00,
2013-01-19 21:17:00,45.9,43.1,30.12,SSE,160,0.0,0.0,90,0.00,,SKC,0.00,VWS V13.01,2013-01-20 03:17:00,
2013-01-19 21:22:00,45.9,43.1,30.12,SSE,160,0.0,0.0,90,0.00,,SKC,0.00,VWS V13.01,2013-01-20 03:22:00,
2013-01-19 21:27:00,45.7,42.6,30.12,SSE,160,0.0,0.0,89,0.00,,SKC,0.00,VWS V13.01,2013-01-20 03:27:00,
2013-01-19 21:32:00,45.3,42.3,30.12,SSE,160,0.0,0.0,89,0.00,,SKC,0.00,VWS V13.01,2013-01-20 03:32:00,
2013-01-19 21:37:00,45.3,42.6,30.12,SSE,160,0.0,0.0,90,0.00,,SKC,0.00,VWS V13.01,2013-01-20 03:37:00,
2013-01-19 21:42:00,45.3,42.3,30.12,SSE,160,0.0,0.0,89,0.00,,SKC,0.00,VWS V13.01,2013-01-20 03:42:00,
2013-01-19 21:47:00,45.0,41.9,30.12,SSE,160,0.0,0.0,89,0.00,,SKC,0.00,VWS V13.01,2013-01-20 03:47:00,
2013-01-19 21:52:00,45.0,42.2,30.12,SSE,160,0.0,0.0,90,0.00,,SKC,0.00,VWS V13.01,2013-01-20 03:52:00,
2013-01-19 21:57:00,44.6,41.6,30.12,SSE,160,0.0,0.0,89,0.00,,SKC,0.00,VWS V13.01,2013-01-20 03:57:00,
2013-01-19 22:02:00,44.2,41.2,30.12,SSE,160,0.0,0.0,89,0.00,,SKC,0.00,VWS V13.01,2013-01-20 04:02:00,
2013-01-19 22:07:00,44.1,41.3,30.12,SSE,160,0.0,0.0,90,0.00,,SKC,0.00,VWS V13.01,2013-01-20 04:07:00,
2013-01-19 22:12:00,43.9,41.1,30.12,SSE,160,0.0,0.0,90,0.00,,SKC,0.00,VWS V13.01,2013-01-20 04:12:00,
2013-01-19 22:18:00,43.9,41.4,30.12,SSE,160,0.0,0.0,91,0.00,,SKC,0.00,VWS V13.01,2013-01-20 04:18:00,
2013-01-19 22:23:00,44.1,41.6,30.12,SSE,160,0.0,0.0,91,0.00,,SKC,0.00,VWS V13.01,2013-01-20 04:23:00,
2013-01-19 22:29:00,44.2,41.8,30.12,SSE,160,0.0,0.0,91,0.00,,SKC,0.00,VWS V13.01,2013-01-20 04:29:00,
2013-01-19 22:34:00,44.4,42.0,30.12,SSE,160,0.0,0.0,91,0.00,,SKC,0.00,VWS V13.01,2013-01-20 04:34:00,
2013-01-19 22:39:00,44.2,41.5,30.12,SSE,160,0.0,0.0,90,0.00,,SKC,0.00,VWS V13.01,2013-01-20 04:39:00,
2013-01-19 22:44:00,44.2,41.8,30.12,SSE,160,0.0,0.0,91,0.00,,SKC,0.00,VWS V13.01,2013-01-20 04:44:00,
2013-01-19 22:49:00,44.2,41.8,30.12,SSE,160,0.0,0.0,91,0.00,,SKC,0.00,VWS V13.01,2013-01-20 04:49:00,
2013-01-19 22:54:00,44.2,41.8,30.12,SSE,160,0.0,0.0,91,0.00,,SKC,0.00,VWS V13.01,2013-01-20 04:54:00,
2013-01-19 22:59:00,44.1,41.6,30.12,SSE,160,0.0,0.0,91,0.00,,SKC,0.00,VWS V13.01,2013-01-20 04:59:00,
2013-01-19 23:01:00,43.9,41.4,30.12,SSE,160,0.0,0.0,91,0.00,,SKC,0.00,VWS V13.01,2013-01-20 05:01:00,
2013-01-19 23:03:00,43.9,41.4,30.12,SSE,160,0.0,0.0,91,0.00,,SKC,0.00,VWS V13.01,2013-01-20 05:03:00,
2013-01-19 23:08:00,43.7,41.0,30.12,SSE,160,0.0,0.0,90,0.00,,SKC,0.00,VWS V13.01,2013-01-20 05:08:00,
2013-01-19 23:13:00,43.5,40.8,30.12,SSE,160,0.0,0.0,90,0.00,,SKC,0.00,VWS V13.01,2013-01-20 05:13:00,
2013-01-19 23:18:00,43.3,40.6,30.12,SSE,160,0.0,0.0,90,0.00,,SKC,0.00,VWS V13.01,2013-01-20 05:18:00,
2013-01-19 23:23:00,43.3,40.9,30.12,SSE,160,0.0,0.0,91,0.00,,SKC,0.00,VWS V13.01,2013-01-20 05:23:00,
2013-01-19 23:28:00,43.3,40.9,30.12,SSE,160,0.0,0.0,91,0.00,,SKC,0.00,VWS V13.01,2013-01-20 05:28:00,
2013-01-19 23:33:00,43.5,41.3,30.12,SSE,160,0.0,0.0,92,0.00,,SKC,0.00,VWS V13.01,2013-01-20 05:33:00,
2013-01-19 23:38:00,43.3,40.9,30.12,SSE,160,0.0,0.0,91,0.00,,SKC,0.00,VWS V13.01,2013-01-20 05:38:00,
2013-01-19 23:43:00,43.2,40.7,30.12,SSE,160,0.0,0.0,91,0.00,,SKC,0.00,VWS V13.01,2013-01-20 05:43:00,
2013-01-19 23:48:00,42.8,40.1,30.12,SSE,160,0.0,0.0,90,0.00,,SKC,0.00,VWS V13.01,2013-01-20 05:48:00,
2013-01-19 23:53:00,42.8,40.4,30.12,SSE,160,0.0,0.0,91,0.00,,SKC,0.00,VWS V13.01,2013-01-20 05:53:00,
2013-01-19 23:58:00,42.6,40.5,30.12,SSE,160,0.0,0.0,92,0.00,,SKC,0.00,VWS V13.01,2013-01-20 05:58:00,